Bluffton, South Carolina
Current Conditions -  °F | °C
As of 4:50 PM on Saturday 22 Nov 2014 (Local Time) from KHXD Reporting Station
Scattered Clouds Scattered Clouds  
Wind Chill: 14°   Ceiling: Unl
Heat Index: 14°   Visibility: 10mi
Dew Point: 12°   Wind: 10mph
Humidity: 88%   Direction: 30°NNE
Pressure: 30.33"   Gusts: NA
Location:  32.24°N, 80.86°W
Report Text: KHXD 222150Z 03009KT 10SM SCT065 14/12 A3033
Loading
Personal Weather Stations






























Interactive Weather Map New forecast layout! Learn more

10-Day Weather Forecast

Advertisements
Track Severe Weather on mobile